Flight Track Log - Related Links

Times and Time Zones

All times are in EDT time to prevent confusion due to time zone crossing. See the ASQ6041 flight status page for this flight to view local times or setup timezone preferences in your user account.

Time Position Orientation Groundspeed Altitude Reporting Facility
EDT Latitude Longitude Course Direction KTS MPH feet Rate Location/Type
Fri 09:57:08 AM 33.5508 -86.7758 248° West 172 198 1,300  Level Atlanta Center
Fri 09:59:03 AM 33.5175 -86.8742 248° West 203 234 5,100 2,023 Climbing Atlanta Center
Fri 10:00:03 AM 33.5669 -86.8983 338° Northwest 149 171 7,200 1,800 Climbing Atlanta Center
Fri 10:01:03 AM 33.6247 -86.8356 42° Northeast 136 157 8,700 1,600 Climbing Atlanta Center
Fri 10:02:03 AM 33.6850 -86.7600 46° Northeast 237 273 10,400 1,200 Climbing Atlanta Center
Fri 10:03:03 AM 33.7514 -86.6772 46° Northeast 283 326 11,100 800 Climbing Atlanta Center
Fri 10:04:03 AM 33.8264 -86.5844 46° Northeast 343 395 12,000 950 Climbing Atlanta Center
Fri 10:05:03 AM 33.9033 -86.4892 46° Northeast 382 440 13,000 1,050 Climbing Atlanta Center
Fri 10:06:03 AM 33.9869 -86.3864 46° Northeast 402 463 14,100 1,150 Climbing Atlanta Center
Fri 10:07:03 AM 34.0661 -86.2856 47° Northeast 409 471 15,300 1,150 Climbing Atlanta Center
Fri 10:08:03 AM 34.1492 -86.1850 45° Northeast 414 476 16,400 1,100 Climbing Atlanta Center
Fri 10:09:03 AM 34.2322 -86.0814 46° Northeast 420 483 17,500 1,100 Climbing Atlanta Center
Fri 10:10:03 AM 34.3153 -85.9778 46° Northeast 420 483 18,600 1,100 Climbing Atlanta Center
Fri 10:11:03 AM 34.3983 -85.8739 46° Northeast 420 483 19,700 1,150 Climbing Atlanta Center
Fri 10:12:03 AM 34.4814 -85.7675 47° Northeast 425 489 20,900 1,150 Climbing Atlanta Center
Fri 10:13:03 AM 34.5661 -85.6608 46° Northeast 425 489 22,000 1,100 Climbing Atlanta Center
Fri 10:14:03 AM 34.6533 -85.5514 46° Northeast 425 489 23,100 1,150 Climbing Atlanta Center
Fri 10:15:03 AM 34.7400 -85.4392 47° Northeast 437 503 24,300 1,150 Climbing Atlanta Center
Fri 10:16:03 AM 34.8269 -85.3292 46° Northeast 442 509 25,400 1,050 Climbing Atlanta Center
Fri 10:17:03 AM 34.9136 -85.2167 47° Northeast 448 516 26,400 1,000 Climbing Atlanta Center
Fri 10:18:03 AM 35.0164 -85.1369 32° Northeast 448 516 27,400 1,000 Climbing Atlanta Center
Fri 10:19:03 AM 35.1336 -85.1081 11° North 424 488 28,400 1,000 Climbing Atlanta Center
Fri 10:20:03 AM 35.2508 -85.0814 11° North 419 482 29,400 1,000 Climbing Atlanta Center
Fri 10:21:03 AM 35.3700 -85.0525 11° North 419 482 30,400 1,050 Climbing Atlanta Center
Fri 10:22:03 AM 35.4850 -85.0233 12° North 419 482 31,500 1,050 Climbing Atlanta Center
Fri 10:23:03 AM 35.6039 -84.9914 12° North 424 488 32,500 1,000 Climbing Atlanta Center
Fri 10:24:03 AM 35.7231 -84.9622 11° North 430 495 33,500 539 Climbing Atlanta Center
Fri 10:25:50 AM 35.9414 -84.9053 12° North 454 522 34,000 178 Climbing Indianapolis Center
Fri 10:26:52 AM 36.0858 -84.8675 12° North 474 545 34,000  Level Indianapolis Center
Fri 10:27:54 AM 36.2217 -84.8322 12° North 493 567 34,000  Level Indianapolis Center
Fri 10:28:56 AM 36.3564 -84.7967 12° North 494 568 34,000  Level Indianapolis Center
Fri 10:29:58 AM 36.4906 -84.7606 12° North 493 567 34,000  Level Indianapolis Center
Fri 10:31:00 AM 36.6497 -84.7119 14° North 491 565 34,000  Level Indianapolis Center
Fri 10:32:02 AM 36.7858 -84.6728 13° North 498 573 34,000  Level Indianapolis Center
Fri 10:33:03 AM 36.9211 -84.6317 14° North 501 577 34,000  Level Indianapolis Center
Fri 10:34:05 AM 37.0583 -84.6103 North 498 573 34,000  Level Indianapolis Center
Fri 10:35:07 AM 37.1908 -84.6200 357° North 483 556 34,000  Level Indianapolis Center
Fri 10:36:09 AM 37.3256 -84.6297 357° North 481 554 34,000  Level Indianapolis Center
Fri 10:37:11 AM 37.4828 -84.6422 356° North 483 556 34,000  Level Indianapolis Center
Fri 10:38:12 AM 37.6150 -84.6517 357° North 477 549 34,000  Level Indianapolis Center
Fri 10:39:14 AM 37.7453 -84.6628 356° North 471 542 34,000  Level Indianapolis Center
Fri 10:40:16 AM 37.8767 -84.6725 357° North 471 542 34,000  Level Indianapolis Center
Fri 10:41:18 AM 38.0078 -84.6836 356° North 470 541 34,000  Level Indianapolis Center
Fri 10:42:19 AM 38.1386 -84.6931 357° North 469 540 34,000  Level Indianapolis Center
Fri 10:43:21 AM 38.2694 -84.7033 356° North 469 540 34,000  Level Indianapolis Center
Fri 10:44:23 AM 38.4247 -84.7150 357° North 474 545 34,000  Level Indianapolis Center
Fri 10:45:25 AM 38.5533 -84.7544 347° North 463 533 34,000  Level Indianapolis Center
Fri 10:46:26 AM 38.6722 -84.8100 340° North 456 525 34,000  Level Indianapolis Center
Fri 10:47:28 AM 38.7900 -84.8647 340° North 449 517 34,000 -194 Level Indianapolis Center
Fri 10:48:30 AM 38.9089 -84.9208 340° North 440 506 33,600 -484 Descending Indianapolis Center
Fri 10:49:32 AM 39.0236 -84.9747 340° North 438 504 33,000 -439 Descending Indianapolis Center
Fri 10:50:33 AM 39.1417 -85.0292 340° North 446 513 32,700 -878 Descending Indianapolis Center
Fri 10:51:35 AM 39.2633 -85.0864 340° North 448 516 31,200 -1,452 Descending Indianapolis Center
Fri 10:52:37 AM 39.3831 -85.1436 340° North 452 520 29,700 -1,561 Descending Indianapolis Center
Fri 10:53:38 AM 39.5050 -85.2025 340° North 460 529 28,000 -1,707 Descending Indianapolis Center
Fri 10:54:40 AM 39.6214 -85.2578 340° North 448 516 26,200 -968 Descending Indianapolis Center
Fri 10:55:42 AM 39.7386 -85.3131 340° North 446 513 26,000 -97 Descending Indianapolis Center
Fri 10:56:44 AM 39.8792 -85.3797 340° North 452 520 26,000 -98 Level Indianapolis Center
Fri 10:57:45 AM 39.9986 -85.4386 339° North 454 522 25,800 -780 Descending Indianapolis Center
Fri 10:58:47 AM 40.1183 -85.4958 340° North 454 522 24,400 -982 Descending Indianapolis Center
Fri 10:59:35 AM 40.2064 -85.5392 339° North 450 518 24,000 -220 Descending Chicago Center
Fri 11:00:36 AM 40.3217 -85.5964 339° North 446 513 24,000  Level Chicago Center
Fri 11:01:38 AM 40.4125 -85.6897 322° Northwest 417 480 24,000 -387 Level Chicago Center
Fri 11:02:40 AM 40.5083 -85.7817 324° Northwest 422 486 23,200 -927 Descending Chicago Center
Fri 11:03:41 AM 40.6053 -85.8744 324° Northwest 428 493 22,100 -585 Descending Chicago Center
Fri 11:04:43 AM 40.7000 -85.9653 324° Northwest 423 487 22,000 -48 Descending Chicago Center
Fri 11:05:45 AM 40.8153 -86.0764 324° Northwest 425 489 22,000  Level Chicago Center
Fri 11:06:46 AM 40.9147 -86.1717 324° Northwest 438 504 22,000  Level Chicago Center
Fri 11:07:48 AM 41.0122 -86.2667 324° Northwest 436 502 22,000  Level Chicago Center
Fri 11:08:49 AM 41.1153 -86.3564 327° Northwest 442 509 22,000 -195 Level Chicago Center
Fri 11:09:51 AM 41.2211 -86.4414 329° Northwest 443 510 21,600 -1,210 Descending Chicago Center
Fri 11:10:53 AM 41.3239 -86.5231 329° Northwest 435 501 19,500 -2,146 Descending Chicago Center
Fri 11:11:54 AM 41.4200 -86.6014 329° Northwest 415 478 17,200 -2,293 Descending Chicago Center
Fri 11:12:56 AM 41.5119 -86.6775 328° Northwest 395 455 14,800 -2,468 Descending Chicago Center
Fri 11:13:58 AM 41.6194 -86.7628 329° Northwest 384 442 12,100 -1,366 Descending Chicago Center
Fri 11:14:59 AM 41.7111 -86.8014 343° North 361 415 12,000 -390 Descending Chicago Center
Fri 11:16:01 AM 41.8108 -86.8178 353° North 367 422 11,300 -488 Descending Chicago Center
Fri 11:17:02 AM 41.8983 -86.8667 337° Northwest 349 402 11,000 -146 Descending Chicago Center
Fri 11:18:04 AM 41.9700 -86.9486 320° Northwest 343 395 11,000  Level Chicago Center
Fri 11:19:06 AM 41.9778 -87.0689 275° West 327 376 11,000 -98 Level Chicago Center
Fri 11:20:07 AM 41.9853 -87.2097 274° West 316 364 10,800 -488 Descending Chicago Center
Fri 11:21:09 AM 41.9811 -87.3158 267° West 292 336 10,000 -1,377 Descending Chicago Center
Fri 11:22:09 AM 41.9833 -87.4167 272° West 267 307 8,000 -1,684 Descending Chicago TRACON
Fri 11:23:03 AM 41.9833 -87.5000 270° West 218 251 6,800 -1,211 Descending Chicago TRACON
Fri 11:24:03 AM 41.9833 -87.5667 270° West 181 208 5,700 -1,100 Descending Chicago TRACON
Fri 11:25:03 AM 41.9833 -87.6333 270° West 175 201 4,600 -1,000 Descending Chicago TRACON
Fri 11:26:03 AM 41.9833 -87.7000 270° West 173 199 3,700 -950 Descending Chicago TRACON
Fri 11:27:03 AM 41.9833 -87.7667 270° West 168 193 2,700 -947 Descending Chicago TRACON
Fri 11:27:57 AM 41.9833 -87.8167 270° West 159 183 1,900 -773 Descending Chicago TRACON
Fri 11:29:15 AM 41.9833 -87.8667 270° West 123 142 1,000 -692 Descending Chicago TRACON
Fri 11:31:00 AM 41.9667 -87.9000 270° West  Level FlightAware Approximate

Login

Don't have an account? Register now (free) for customized features, flight alerts, and more!